createdAt,value
2022-11-16T00:00:17.194Z,70.76
2022-11-16T00:01:17.531Z,70.76
2022-11-16T00:02:17.828Z,70.76
2022-11-16T00:03:18.089Z,70.79
2022-11-16T00:04:18.357Z,70.76
2022-11-16T00:05:18.613Z,70.76
2022-11-16T00:06:18.947Z,70.76
2022-11-16T00:07:19.275Z,70.76
2022-11-16T00:08:19.513Z,70.76
2022-11-16T00:09:19.841Z,70.76
2022-11-16T00:10:20.101Z,70.76
2022-11-16T00:11:20.404Z,70.76
2022-11-16T00:12:20.655Z,70.76
2022-11-16T00:13:20.943Z,70.76
2022-11-16T00:14:21.243Z,70.86
2022-11-16T00:15:21.529Z,70.86
2022-11-16T00:16:21.844Z,70.76
2022-11-16T00:17:22.109Z,70.86
2022-11-16T00:18:22.418Z,70.76
2022-11-16T00:19:22.678Z,70.76
2022-11-16T00:20:22.990Z,70.76
2022-11-16T00:21:23.279Z,70.76
2022-11-16T00:22:23.512Z,70.86
2022-11-16T00:23:23.817Z,70.86
2022-11-16T00:24:24.088Z,70.86
2022-11-16T00:25:24.369Z,70.86
2022-11-16T00:26:24.632Z,70.86
2022-11-16T00:27:24.873Z,70.86
2022-11-16T00:28:25.164Z,70.86
2022-11-16T00:29:25.489Z,70.86
2022-11-16T00:30:25.727Z,70.86
2022-11-16T00:31:26.034Z,70.86
2022-11-16T00:32:26.324Z,70.86
2022-11-16T00:33:26.630Z,70.96
2022-11-16T00:34:26.940Z,70.96
2022-11-16T00:35:27.178Z,70.96
2022-11-16T00:36:27.485Z,70.96
2022-11-16T00:37:27.800Z,70.96
2022-11-16T00:38:28.069Z,70.96
2022-11-16T00:39:28.335Z,70.96
2022-11-16T00:40:28.661Z,70.96
2022-11-16T00:41:28.915Z,70.86
2022-11-16T00:42:29.214Z,70.96
2022-11-16T00:43:29.504Z,70.86
2022-11-16T00:44:29.799Z,70.86
2022-11-16T00:45:30.075Z,70.86
2022-11-16T00:46:30.411Z,70.86
2022-11-16T00:47:30.689Z,70.86
2022-11-16T00:48:31.225Z,70.86
2022-11-16T00:49:31.294Z,70.86
2022-11-16T00:50:31.611Z,70.86
2022-11-16T00:51:31.864Z,70.86
2022-11-16T00:52:32.182Z,70.86
2022-11-16T00:53:32.492Z,70.86
2022-11-16T00:54:32.734Z,70.86
2022-11-16T00:55:33.023Z,70.86
2022-11-16T00:56:33.400Z,70.96
2022-11-16T00:57:33.711Z,70.96
2022-11-16T00:58:34.173Z,70.96
2022-11-16T00:59:34.298Z,70.96
2022-11-16T01:00:34.543Z,70.96
2022-11-16T01:01:34.936Z,70.96
2022-11-16T01:02:35.105Z,70.96
2022-11-16T01:03:35.422Z,70.96
2022-11-16T01:04:35.692Z,70.96
2022-11-16T01:05:35.993Z,71.06
2022-11-16T01:06:36.333Z,71.06
2022-11-16T01:07:36.629Z,71.06
2022-11-16T01:08:37.165Z,71.06
2022-11-16T01:09:37.186Z,71.06
2022-11-16T01:10:37.511Z,71.06
2022-11-16T01:11:37.789Z,71.06
2022-11-16T01:12:38.028Z,71.06
2022-11-16T01:13:38.334Z,71.16
2022-11-16T01:14:38.642Z,71.16
2022-11-16T01:15:38.935Z,71.16
2022-11-16T01:16:39.282Z,71.16
2022-11-16T01:17:39.559Z,71.26
2022-11-16T01:18:39.796Z,71.26
2022-11-16T01:19:40.115Z,71.26
2022-11-16T01:20:41.175Z,71.26
2022-11-16T01:21:40.662Z,71.26
2022-11-16T01:22:40.926Z,71.26
2022-11-16T01:23:41.252Z,71.26
2022-11-16T01:24:41.532Z,71.26
2022-11-16T01:25:41.826Z,71.26
2022-11-16T01:26:42.172Z,71.26
2022-11-16T01:27:42.454Z,71.26
2022-11-16T01:28:42.718Z,71.26
2022-11-16T01:29:43.044Z,71.26
2022-11-16T01:30:43.346Z,71.26
2022-11-16T01:31:43.695Z,71.26
2022-11-16T01:32:43.946Z,71.26
2022-11-16T01:33:44.274Z,71.26
2022-11-16T01:34:44.579Z,71.36
2022-11-16T01:35:44.913Z,71.36
2022-11-16T01:36:45.186Z,71.26
2022-11-16T01:37:45.466Z,71.23
2022-11-16T01:38:45.843Z,71.36
2022-11-16T01:39:46.017Z,71.33
2022-11-16T01:40:46.334Z,71.33
2022-11-16T01:41:46.664Z,71.33
2022-11-16T01:42:46.900Z,71.33
2022-11-16T01:43:47.225Z,71.33
2022-11-16T01:44:47.550Z,71.33
2022-11-16T01:45:47.798Z,71.33
2022-11-16T01:46:48.140Z,71.33
2022-11-16T01:47:48.441Z,71.23
2022-11-16T01:48:48.771Z,71.23
2022-11-16T01:49:49.088Z,71.23
2022-11-16T01:50:49.312Z,71.23
2022-11-16T01:51:49.609Z,71.23
2022-11-16T01:52:49.915Z,71.33
2022-11-16T01:53:50.188Z,71.33
2022-11-16T01:54:50.478Z,71.33
2022-11-16T01:55:50.794Z,71.33
2022-11-16T01:56:51.134Z,71.33
2022-11-16T01:57:51.412Z,71.33
2022-11-16T01:58:51.683Z,71.23
2022-11-16T01:59:51.959Z,71.23
2022-11-16T02:00:52.331Z,71.33
2022-11-16T02:01:52.598Z,71.33
2022-11-16T02:02:52.886Z,71.23
2022-11-16T02:03:53.215Z,71.23
2022-11-16T02:04:53.496Z,71.23
2022-11-16T02:05:53.740Z,71.23
2022-11-16T02:06:54.143Z,71.23
2022-11-16T02:07:54.335Z,71.23
2022-11-16T02:08:54.616Z,71.23
2022-11-16T02:09:54.963Z,71.23
2022-11-16T02:10:55.239Z,71.23
2022-11-16T02:11:55.549Z,71.23
2022-11-16T02:12:55.876Z,71.23
2022-11-16T02:13:56.124Z,71.23
2022-11-16T02:14:56.409Z,71.23
2022-11-16T02:15:56.718Z,71.23
2022-11-16T02:16:56.999Z,71.23
2022-11-16T02:17:57.270Z,71.23
2022-11-16T02:18:57.585Z,71.23
2022-11-16T02:19:57.836Z,71.23
2022-11-16T02:20:58.135Z,71.23
2022-11-16T02:21:58.453Z,71.23
2022-11-16T02:22:58.678Z,71.23
2022-11-16T02:23:58.972Z,71.23
2022-11-16T02:24:59.277Z,71.23
2022-11-16T02:25:59.539Z,71.23
2022-11-16T02:26:59.832Z,71.23
2022-11-16T02:28:00.116Z,71.23
2022-11-16T02:29:00.405Z,71.13
2022-11-16T02:30:00.686Z,71.13
2022-11-16T02:31:00.984Z,71.13
2022-11-16T02:32:01.282Z,71.13
2022-11-16T02:33:01.554Z,71.13
2022-11-16T02:34:02.012Z,71.13
2022-11-16T02:35:02.086Z,71.13
2022-11-16T02:36:02.376Z,71.13
2022-11-16T02:37:02.628Z,71.13
2022-11-16T02:38:02.899Z,71.03
2022-11-16T02:39:03.179Z,71.09
2022-11-16T02:40:03.496Z,71.03
2022-11-16T02:41:03.720Z,71.03
2022-11-16T02:42:04.039Z,71.13
2022-11-16T02:43:04.277Z,71.13
2022-11-16T02:44:04.547Z,71.13
2022-11-16T02:45:04.823Z,71.13
2022-11-16T02:46:05.131Z,71.13
2022-11-16T02:47:05.404Z,71.13
2022-11-16T02:48:05.695Z,71.13
2022-11-16T02:49:05.960Z,71.13
2022-11-16T02:50:06.297Z,71.13
2022-11-16T02:51:06.520Z,71.13
2022-11-16T02:52:06.801Z,71.13
2022-11-16T02:53:07.080Z,71.13
2022-11-16T02:54:07.376Z,71.13
2022-11-16T02:55:07.645Z,71.13
2022-11-16T02:56:07.930Z,71.23
2022-11-16T02:57:08.221Z,71.23
2022-11-16T02:58:08.490Z,71.23
2022-11-16T02:59:08.761Z,71.23
2022-11-16T03:00:09.035Z,71.23
2022-11-16T03:01:09.381Z,71.23
2022-11-16T03:02:09.641Z,71.23
2022-11-16T03:03:09.896Z,71.23
2022-11-16T03:04:10.188Z,71.23
2022-11-16T03:05:10.439Z,71.23
2022-11-16T03:06:10.701Z,71.23
2022-11-16T03:07:11.013Z,71.23
2022-11-16T03:08:11.277Z,71.33
2022-11-16T03:09:11.502Z,71.33
2022-11-16T03:10:11.798Z,71.33
2022-11-16T03:11:12.074Z,71.33
2022-11-16T03:12:12.362Z,71.33
2022-11-16T03:13:12.639Z,71.33
2022-11-16T03:14:12.937Z,71.33
2022-11-16T03:15:13.187Z,71.33
2022-11-16T03:16:13.479Z,71.33
2022-11-16T03:17:13.777Z,71.33
2022-11-16T03:18:14.035Z,71.33
2022-11-16T03:19:14.316Z,71.33
2022-11-16T03:20:14.609Z,71.33
2022-11-16T03:21:14.872Z,71.33
2022-11-16T03:22:15.198Z,71.33
2022-11-16T03:23:15.421Z,71.33
2022-11-16T03:24:15.691Z,71.33
2022-11-16T03:25:15.974Z,71.33
2022-11-16T03:26:16.245Z,71.33
2022-11-16T03:27:16.567Z,71.33
2022-11-16T03:28:16.819Z,71.33
2022-11-16T03:29:17.043Z,71.33
2022-11-16T03:30:20.080Z,71.33
2022-11-16T03:31:18.546Z,71.23
2022-11-16T03:32:17.854Z,71.33
2022-11-16T03:33:18.130Z,71.33
2022-11-16T03:34:18.430Z,71.33
2022-11-16T03:35:18.662Z,71.33
2022-11-16T03:36:18.934Z,71.33
2022-11-16T03:37:19.222Z,71.33
2022-11-16T03:38:19.529Z,71.33
2022-11-16T03:39:19.779Z,71.33
2022-11-16T03:40:20.063Z,71.33
2022-11-16T03:41:20.333Z,71.33
2022-11-16T03:42:20.649Z,71.33
2022-11-16T03:43:20.872Z,71.33
2022-11-16T03:44:21.180Z,71.33
2022-11-16T03:45:21.439Z,71.33
2022-11-16T03:46:21.690Z,71.33
2022-11-16T03:47:22.000Z,71.33
2022-11-16T03:48:22.234Z,71.33
2022-11-16T03:49:22.498Z,71.33
2022-11-16T03:50:22.791Z,71.33
2022-11-16T03:51:23.081Z,71.33
2022-11-16T03:52:23.351Z,71.33
2022-11-16T03:53:23.574Z,71.33
2022-11-16T03:54:23.878Z,71.33
2022-11-16T03:55:24.144Z,71.33
2022-11-16T03:56:24.440Z,71.33
2022-11-16T03:57:24.748Z,71.33
2022-11-16T03:58:24.998Z,71.33
2022-11-16T03:59:25.264Z,71.33
2022-11-16T04:00:25.570Z,71.33
2022-11-16T04:01:25.867Z,71.33
2022-11-16T04:02:26.170Z,71.33
2022-11-16T04:03:26.430Z,71.33
2022-11-16T04:04:26.721Z,71.33
2022-11-16T04:05:26.970Z,71.33
2022-11-16T04:06:27.234Z,71.33
2022-11-16T04:07:27.592Z,71.44
2022-11-16T04:08:27.832Z,71.44
2022-11-16T04:09:28.131Z,71.44
2022-11-16T04:10:28.355Z,71.44
2022-11-16T04:11:28.653Z,71.33
2022-11-16T04:12:28.921Z,71.33
2022-11-16T04:13:29.172Z,71.33
2022-11-16T04:14:29.435Z,71.33
2022-11-16T04:15:29.821Z,71.33
2022-11-16T04:16:30.034Z,71.33
2022-11-16T04:17:30.348Z,71.33
2022-11-16T04:18:30.955Z,71.33
2022-11-16T04:19:30.844Z,71.44
2022-11-16T04:20:31.125Z,71.44
2022-11-16T04:21:31.398Z,71.44
2022-11-16T04:22:31.680Z,71.44
2022-11-16T04:23:31.947Z,71.33
2022-11-16T04:24:32.253Z,71.33
2022-11-16T04:25:32.477Z,71.33
2022-11-16T04:26:32.758Z,71.33
2022-11-16T04:27:33.047Z,71.33
2022-11-16T04:28:33.714Z,71.33
2022-11-16T04:29:33.606Z,71.33
2022-11-16T04:30:33.902Z,71.33
2022-11-16T04:31:34.166Z,71.33
2022-11-16T04:32:34.467Z,71.33
2022-11-16T04:33:34.722Z,71.33
2022-11-16T04:34:34.947Z,71.33
2022-11-16T04:35:35.224Z,71.33
2022-11-16T04:36:35.532Z,71.33
2022-11-16T04:37:35.835Z,71.33
2022-11-16T04:38:36.286Z,71.33
2022-11-16T04:39:36.336Z,71.33
2022-11-16T04:40:36.620Z,71.33
2022-11-16T04:41:36.913Z,71.33
2022-11-16T04:42:37.166Z,71.44
2022-11-16T04:43:37.434Z,71.44
2022-11-16T04:44:37.693Z,71.44
2022-11-16T04:45:37.918Z,71.53
2022-11-16T04:46:38.213Z,71.53
2022-11-16T04:47:38.525Z,71.53
2022-11-16T04:48:38.777Z,71.64
2022-11-16T04:49:39.063Z,71.64
2022-11-16T04:50:39.327Z,71.64
2022-11-16T04:51:39.634Z,71.64
2022-11-16T04:52:39.905Z,71.53
2022-11-16T04:53:40.128Z,71.53
2022-11-16T04:54:40.424Z,71.53
2022-11-16T04:55:40.688Z,71.53
2022-11-16T04:56:40.934Z,71.53
2022-11-16T04:57:41.209Z,71.53
2022-11-16T04:58:41.505Z,71.53
2022-11-16T04:59:41.783Z,71.53
2022-11-16T05:00:42.073Z,71.53
2022-11-16T05:01:42.431Z,71.53
2022-11-16T05:02:42.724Z,71.53
2022-11-16T05:03:42.949Z,71.53
2022-11-16T05:04:43.266Z,71.53
2022-11-16T05:05:43.489Z,71.44
2022-11-16T05:06:43.769Z,71.44
2022-11-16T05:07:44.076Z,71.44
2022-11-16T05:08:44.299Z,71.44
2022-11-16T05:09:44.603Z,71.44
2022-11-16T05:10:44.828Z,71.44
2022-11-16T05:11:45.098Z,71.44
2022-11-16T05:12:45.379Z,71.44
2022-11-16T05:13:45.685Z,71.44
2022-11-16T05:14:45.955Z,71.44
2022-11-16T05:15:46.263Z,71.44
2022-11-16T05:16:46.499Z,71.44
2022-11-16T05:17:46.799Z,71.44
2022-11-16T05:18:47.067Z,71.44
2022-11-16T05:19:47.317Z,71.44
2022-11-16T05:20:47.583Z,71.44
2022-11-16T05:21:47.859Z,71.44
2022-11-16T05:22:48.170Z,71.44
2022-11-16T05:23:48.412Z,71.44
2022-11-16T05:24:48.679Z,71.44
2022-11-16T05:25:48.960Z,71.44
2022-11-16T05:26:49.257Z,71.44
2022-11-16T05:27:49.583Z,71.44
2022-11-16T05:28:49.809Z,71.44
2022-11-16T05:29:50.082Z,71.44
2022-11-16T05:30:50.388Z,71.44
2022-11-16T05:31:50.636Z,71.44
2022-11-16T05:32:50.936Z,71.44
2022-11-16T05:33:51.195Z,71.44
2022-11-16T05:34:51.422Z,71.53
2022-11-16T05:35:51.722Z,71.53
2022-11-16T05:36:51.941Z,71.53
2022-11-16T05:37:52.241Z,71.53
2022-11-16T05:38:56.072Z,71.53
2022-11-16T05:39:52.731Z,71.53
2022-11-16T05:40:53.028Z,71.53
2022-11-16T05:41:53.279Z,71.53
2022-11-16T05:42:53.597Z,71.53
2022-11-16T05:43:53.821Z,71.53
2022-11-16T05:44:54.108Z,71.47
2022-11-16T05:45:54.400Z,71.47
2022-11-16T05:46:54.654Z,71.47
2022-11-16T05:47:54.969Z,71.47
2022-11-16T05:48:55.248Z,71.47
2022-11-16T05:49:55.476Z,71.47
2022-11-16T05:50:55.762Z,71.47
2022-11-16T05:51:56.044Z,71.47
2022-11-16T05:52:56.376Z,71.47
2022-11-16T05:53:56.616Z,71.57
2022-11-16T05:54:56.841Z,71.60
2022-11-16T05:55:57.215Z,71.60
2022-11-16T05:56:57.433Z,71.60
2022-11-16T05:57:57.768Z,71.60
2022-11-16T05:58:57.999Z,71.60
2022-11-16T05:59:58.278Z,71.60
2022-11-16T06:00:58.591Z,71.70
2022-11-16T06:01:58.851Z,71.73
2022-11-16T06:02:59.228Z,71.73
2022-11-16T06:03:59.444Z,71.73
2022-11-16T06:04:59.738Z,71.73
2022-11-16T06:06:00.074Z,71.73
2022-11-16T06:07:00.383Z,71.73
2022-11-16T06:08:00.704Z,71.73
2022-11-16T06:09:00.969Z,71.73
2022-11-16T06:10:01.203Z,71.73
2022-11-16T06:11:01.500Z,71.87
2022-11-16T06:12:01.734Z,71.87
2022-11-16T06:13:02.033Z,71.87
2022-11-16T06:14:02.314Z,71.87
2022-11-16T06:15:02.552Z,71.87
2022-11-16T06:16:02.852Z,71.87
2022-11-16T06:17:03.089Z,71.87
2022-11-16T06:18:03.363Z,71.87
2022-11-16T06:19:03.653Z,71.87
2022-11-16T06:20:03.965Z,71.87
2022-11-16T06:21:04.304Z,71.87
2022-11-16T06:22:04.571Z,71.87
2022-11-16T06:23:04.834Z,71.87
2022-11-16T06:24:05.090Z,71.87
2022-11-16T06:25:05.342Z,71.97
2022-11-16T06:26:05.630Z,71.97
2022-11-16T06:27:05.914Z,71.97
2022-11-16T06:28:08.068Z,71.97
2022-11-16T06:29:06.450Z,71.97
2022-11-16T06:30:06.732Z,71.97
2022-11-16T06:31:07.021Z,71.97
2022-11-16T06:32:07.244Z,71.97
2022-11-16T06:33:07.561Z,71.97
2022-11-16T06:34:07.820Z,71.97
2022-11-16T06:35:08.078Z,71.87
2022-11-16T06:36:08.372Z,71.97
2022-11-16T06:37:08.660Z,71.87
2022-11-16T06:38:08.956Z,71.87
2022-11-16T06:39:09.251Z,71.87
2022-11-16T06:40:09.552Z,71.87
2022-11-16T06:41:09.784Z,71.91
2022-11-16T06:42:10.092Z,71.91
2022-11-16T06:43:10.401Z,71.91
2022-11-16T06:44:10.635Z,71.91
2022-11-16T06:45:10.924Z,71.91
2022-11-16T06:46:11.214Z,71.80
2022-11-16T06:47:11.485Z,71.80
2022-11-16T06:48:11.796Z,71.80
2022-11-16T06:49:12.094Z,71.80
2022-11-16T06:50:12.420Z,71.80
2022-11-16T06:51:12.706Z,71.70
2022-11-16T06:52:12.995Z,71.70
2022-11-16T06:54:44.918Z,71.73
2022-11-16T06:55:29.439Z,71.64
2022-11-16T06:56:29.729Z,71.64
2022-11-16T06:57:30.018Z,71.73
2022-11-16T06:58:30.414Z,71.73
2022-11-16T06:59:30.668Z,71.73
2022-11-16T07:00:31.063Z,71.84
2022-11-16T07:01:31.337Z,71.73
2022-11-16T07:02:31.568Z,71.73
2022-11-16T07:03:31.905Z,71.77
2022-11-16T07:04:32.182Z,71.77
2022-11-16T07:05:32.473Z,71.87
2022-11-16T07:06:32.784Z,71.87
2022-11-16T07:07:33.137Z,71.77
2022-11-16T07:08:33.688Z,71.77
2022-11-16T07:09:33.688Z,71.77
2022-11-16T07:10:33.977Z,71.77
2022-11-16T07:11:34.303Z,71.77
2022-11-16T07:12:34.575Z,71.67
2022-11-16T07:13:34.904Z,71.67
2022-11-16T07:14:35.148Z,71.67
2022-11-16T07:15:35.463Z,71.56
2022-11-16T07:16:35.776Z,71.56
2022-11-16T07:17:36.060Z,71.56
2022-11-16T07:18:36.780Z,71.47
2022-11-16T07:19:36.712Z,71.47
2022-11-16T07:20:36.960Z,71.47
2022-11-16T07:21:37.248Z,71.47
2022-11-16T07:22:37.574Z,71.47
2022-11-16T07:23:37.855Z,71.36
2022-11-16T07:24:38.101Z,71.36
2022-11-16T07:25:38.399Z,71.47
2022-11-16T07:26:38.698Z,71.36
2022-11-16T07:27:39.026Z,71.36
2022-11-16T07:28:44.914Z,71.36
2022-11-16T07:29:40.544Z,71.36
2022-11-16T07:30:39.880Z,71.36
2022-11-16T07:31:40.197Z,71.36
2022-11-16T07:32:43.303Z,71.36
2022-11-16T07:33:40.831Z,71.36
2022-11-16T07:34:41.106Z,71.36
2022-11-16T07:35:41.426Z,71.36
2022-11-16T07:36:41.677Z,71.36
2022-11-16T07:37:41.970Z,71.36
2022-11-16T07:38:42.307Z,71.36
2022-11-16T07:39:42.605Z,71.36
2022-11-16T07:40:42.903Z,71.26
2022-11-16T07:41:43.195Z,71.26
2022-11-16T07:42:43.468Z,71.26
2022-11-16T07:43:47.200Z,71.26
2022-11-16T07:44:45.105Z,71.26
2022-11-16T07:45:44.347Z,71.26
2022-11-16T07:46:47.140Z,71.26
2022-11-16T07:47:44.919Z,71.16
2022-11-16T07:48:45.155Z,71.06
2022-11-16T07:49:45.404Z,71.06
2022-11-16T07:50:45.698Z,71.06
2022-11-16T07:51:45.945Z,70.95
2022-11-16T07:52:46.161Z,70.95
2022-11-16T07:53:46.540Z,70.86
2022-11-16T07:54:46.888Z,70.72
2022-11-16T07:55:47.180Z,70.62
2022-11-16T07:56:48.391Z,70.41
2022-11-16T07:57:52.955Z,70.18
2022-11-16T07:58:49.019Z,69.94
2022-11-16T07:59:48.266Z,69.63
2022-11-16T08:00:48.479Z,68.96
2022-11-16T08:01:48.927Z,68.75
2022-11-16T08:02:49.115Z,62.74
2022-11-16T08:03:49.376Z,62.57
2022-11-16T08:04:49.696Z,62.67
2022-11-16T08:05:49.909Z,62.70
2022-11-16T08:06:50.325Z,63.61
2022-11-16T08:07:50.528Z,63.31
2022-11-16T08:08:56.681Z,63.36
2022-11-16T08:09:52.325Z,63.56
2022-11-16T08:10:51.769Z,68.77
2022-11-16T08:11:51.806Z,68.77
2022-11-16T08:12:52.107Z,69.17
2022-11-16T08:13:52.413Z,68.99
2022-11-16T08:14:52.631Z,69.02
2022-11-16T08:15:53.041Z,68.75
2022-11-16T08:16:53.290Z,68.57
2022-11-16T08:17:53.460Z,62.63
2022-11-16T08:18:53.909Z,67.81
2022-11-16T08:19:54.136Z,62.50
2022-11-16T08:20:54.390Z,67.19
2022-11-16T08:21:54.690Z,66.11
2022-11-16T08:22:55.067Z,62.70
2022-11-16T08:23:58.405Z,62.70
2022-11-16T08:24:55.637Z,62.50
2022-11-16T08:25:55.998Z,62.60
2022-11-16T08:26:56.296Z,62.60
2022-11-16T08:27:56.677Z,62.50
2022-11-16T08:28:56.882Z,62.60
2022-11-16T08:29:57.198Z,68.77
2022-11-16T08:30:57.501Z,62.52
2022-11-16T08:31:57.836Z,62.92
2022-11-16T08:32:58.168Z,62.89
2022-11-16T08:33:58.501Z,62.89
2022-11-16T08:34:58.828Z,62.50
2022-11-16T08:35:59.091Z,62.72
2022-11-16T08:36:59.426Z,62.50
2022-11-16T08:37:59.740Z,62.50
2022-11-16T08:39:00.076Z,68.75
2022-11-16T08:40:00.424Z,62.89
2022-11-16T08:41:00.731Z,62.89
2022-11-16T08:42:01.051Z,62.55
2022-11-16T08:43:01.362Z,62.78
2022-11-16T08:44:01.710Z,62.74
2022-11-16T08:45:01.981Z,62.60
2022-11-16T08:46:02.348Z,62.99
2022-11-16T08:47:02.622Z,62.89
2022-11-16T08:48:04.490Z,63.01
2022-11-16T08:49:03.290Z,62.50
2022-11-16T08:50:10.430Z,62.70
2022-11-16T08:51:19.968Z,62.90
2022-11-16T08:52:04.063Z,62.79
2022-11-16T08:53:04.402Z,63.10
2022-11-16T08:54:04.752Z,63.09
2022-11-16T08:55:05.072Z,62.50
2022-11-16T08:56:05.427Z,56.49
2022-11-16T08:57:05.778Z,56.37
2022-11-16T08:58:06.089Z,50.32
2022-11-16T08:59:06.315Z,68.75
2022-11-16T09:00:06.628Z,69.21
2022-11-16T09:01:06.953Z,62.89
2022-11-16T09:02:07.327Z,62.81
2022-11-16T09:03:07.582Z,63.10
2022-11-16T09:04:07.913Z,62.75
2022-11-16T09:05:08.248Z,63.37
2022-11-16T09:06:08.599Z,62.51
2022-11-16T09:07:08.951Z,63.28
2022-11-16T09:08:09.229Z,62.52
2022-11-16T09:09:09.553Z,57.45
2022-11-16T09:10:09.883Z,57.03
2022-11-16T09:11:10.220Z,62.50
2022-11-16T09:12:10.541Z,62.50
2022-11-16T09:13:10.863Z,62.89
2022-11-16T09:14:11.214Z,63.53
2022-11-16T09:15:11.494Z,68.75
2022-11-16T09:16:11.800Z,69.09
2022-11-16T09:17:12.107Z,69.14
2022-11-16T09:18:12.433Z,50.41
2022-11-16T09:19:12.782Z,50.29
2022-11-16T09:20:13.105Z,50.01
2022-11-16T09:21:13.416Z,50.20
2022-11-16T09:22:13.733Z,50.01
2022-11-16T09:23:14.075Z,56.40
2022-11-16T09:24:14.395Z,56.40
2022-11-16T09:25:14.704Z,50.09
2022-11-16T09:26:15.032Z,56.31
2022-11-16T09:27:15.344Z,56.45
2022-11-16T09:28:15.682Z,56.48
2022-11-16T09:29:16.034Z,56.38
2022-11-16T09:30:16.374Z,56.37
2022-11-16T09:31:23.017Z,56.65
2022-11-16T09:32:17.967Z,56.66
2022-11-16T09:33:17.315Z,56.37
2022-11-16T09:34:17.655Z,56.45
2022-11-16T09:35:17.945Z,56.64
2022-11-16T09:36:18.262Z,57.05
2022-11-16T09:37:18.609Z,57.04
2022-11-16T09:38:27.007Z,56.25
2022-11-16T09:39:31.154Z,57.03
2022-11-16T09:40:20.454Z,56.35
2022-11-16T09:41:40.785Z,56.30
2022-11-16T09:42:20.078Z,57.13
2022-11-16T09:43:20.404Z,56.30
2022-11-16T09:44:20.736Z,57.03
2022-11-16T09:45:21.047Z,56.30
2022-11-16T09:46:21.375Z,62.61
2022-11-16T09:47:21.681Z,63.31
2022-11-16T09:48:21.999Z,56.40
2022-11-16T09:49:22.335Z,57.10
2022-11-16T09:50:22.704Z,57.30
2022-11-16T09:51:22.926Z,57.09
2022-11-16T09:52:23.257Z,57.29
2022-11-16T09:53:24.115Z,56.48
2022-11-16T09:54:23.856Z,57.08
2022-11-16T09:55:24.145Z,56.26
2022-11-16T09:56:24.456Z,56.37
2022-11-16T09:57:24.785Z,56.45
2022-11-16T09:58:25.096Z,56.45
2022-11-16T09:59:25.444Z,56.25
2022-11-16T10:00:25.848Z,57.25
2022-11-16T10:01:26.140Z,56.54
2022-11-16T10:02:26.276Z,56.46
2022-11-16T10:03:26.616Z,57.24
2022-11-16T10:04:26.962Z,56.46
2022-11-16T10:05:27.260Z,57.23
2022-11-16T10:06:27.575Z,56.45
2022-11-16T10:07:27.949Z,57.24
2022-11-16T10:08:28.157Z,57.24
2022-11-16T10:09:28.497Z,56.46
2022-11-16T10:10:28.846Z,56.45
2022-11-16T10:11:29.181Z,57.04
2022-11-16T10:12:29.517Z,57.05
2022-11-16T10:13:29.842Z,56.25
2022-11-16T10:14:30.200Z,57.15
2022-11-16T10:15:30.504Z,57.13
2022-11-16T10:16:30.840Z,57.05
2022-11-16T10:17:31.171Z,57.14
2022-11-16T10:18:31.506Z,56.25
2022-11-16T10:19:31.872Z,56.27
2022-11-16T10:20:32.187Z,57.04
2022-11-16T10:21:32.518Z,56.45
2022-11-16T10:22:32.808Z,57.05
2022-11-16T10:23:33.423Z,56.35
2022-11-16T10:24:33.459Z,57.05
2022-11-16T10:25:33.749Z,56.36
2022-11-16T10:26:34.100Z,57.15
2022-11-16T10:27:34.397Z,57.14
2022-11-16T10:28:34.671Z,57.03
2022-11-16T10:29:35.030Z,57.14
2022-11-16T10:30:35.323Z,57.04
2022-11-16T10:31:35.652Z,56.26
2022-11-16T10:32:35.978Z,57.04
2022-11-16T10:33:36.723Z,57.15
2022-11-16T10:34:36.599Z,56.25
2022-11-16T10:35:36.895Z,56.27
2022-11-16T10:36:37.210Z,57.04
2022-11-16T10:37:37.531Z,56.70
2022-11-16T10:38:37.861Z,56.67
2022-11-16T10:39:38.193Z,56.70
2022-11-16T10:40:38.477Z,56.30
2022-11-16T10:41:38.811Z,56.71
2022-11-16T10:42:39.132Z,56.43
2022-11-16T10:43:39.458Z,56.47
2022-11-16T10:44:39.803Z,56.76
2022-11-16T10:45:40.084Z,56.40
2022-11-16T10:46:40.401Z,56.67
2022-11-16T10:47:40.709Z,56.37
2022-11-16T10:48:41.064Z,56.27
2022-11-16T10:49:41.343Z,56.48
2022-11-16T10:50:41.621Z,56.37
2022-11-16T10:51:41.964Z,52.89
2022-11-16T10:52:42.241Z,53.00
2022-11-16T10:53:42.570Z,51.59
2022-11-16T10:54:44.377Z,51.76
2022-11-16T10:55:43.122Z,50.78
2022-11-16T10:56:43.464Z,50.15
2022-11-16T10:57:43.745Z,50.42
2022-11-16T10:58:44.084Z,51.61
2022-11-16T10:59:44.321Z,50.49
2022-11-16T11:00:44.647Z,50.59
2022-11-16T11:01:44.911Z,53.12
2022-11-16T11:02:45.212Z,53.33
2022-11-16T11:03:45.530Z,51.62
2022-11-16T11:04:45.873Z,52.39
2022-11-16T11:05:46.163Z,53.14
2022-11-16T11:06:46.386Z,53.96
2022-11-16T11:07:46.697Z,53.87
2022-11-16T11:08:47.025Z,53.33
2022-11-16T11:09:47.385Z,53.52
2022-11-16T11:10:47.581Z,52.15
2022-11-16T11:11:47.919Z,51.78
2022-11-16T11:12:48.227Z,50.39
2022-11-16T11:13:48.557Z,55.08
2022-11-16T11:14:48.904Z,53.37
2022-11-16T11:15:50.103Z,53.53
2022-11-16T11:16:49.465Z,55.10
2022-11-16T11:17:49.770Z,50.20
2022-11-16T11:18:50.072Z,51.59
2022-11-16T11:19:50.411Z,52.38
2022-11-16T11:20:50.731Z,52.48
2022-11-16T11:21:51.064Z,51.59
2022-11-16T11:22:51.387Z,50.85
2022-11-16T11:23:51.716Z,51.76
2022-11-16T11:24:52.052Z,51.05
2022-11-16T11:25:52.332Z,50.88
2022-11-16T11:26:52.665Z,50.78
2022-11-16T11:27:52.974Z,55.00
2022-11-16T11:28:53.333Z,54.30
2022-11-16T11:29:53.634Z,55.10
2022-11-16T11:30:53.897Z,50.89
2022-11-16T11:31:54.219Z,54.70
2022-11-16T11:32:54.523Z,53.65
2022-11-16T11:33:54.845Z,54.96
2022-11-16T11:34:55.187Z,53.96
2022-11-16T11:35:55.464Z,50.06
2022-11-16T11:36:55.771Z,50.84
2022-11-16T11:37:56.082Z,50.84
2022-11-16T11:38:56.411Z,54.69
2022-11-16T11:39:56.735Z,53.14
2022-11-16T11:40:57.054Z,54.05
2022-11-16T11:41:57.373Z,54.76
2022-11-16T11:42:57.683Z,54.88
2022-11-16T11:43:59.034Z,53.44
2022-11-16T11:44:58.255Z,53.96
2022-11-16T11:45:58.571Z,55.08
2022-11-16T11:48:00.491Z,54.36
2022-11-16T11:48:59.541Z,55.98
2022-11-16T11:49:59.719Z,54.36
2022-11-16T11:51:00.026Z,55.27
2022-11-16T11:52:00.337Z,56.05
2022-11-16T11:53:00.684Z,53.71
2022-11-16T11:54:00.956Z,54.70
2022-11-16T11:55:01.307Z,53.81
2022-11-16T11:56:01.574Z,53.03
2022-11-16T11:57:01.896Z,54.99
2022-11-16T11:58:02.358Z,55.68
2022-11-16T11:59:02.518Z,50.49
2022-11-16T12:00:02.859Z,55.08
2022-11-16T12:01:03.137Z,55.57
2022-11-16T12:02:03.472Z,52.73
2022-11-16T12:03:03.871Z,52.34
2022-11-16T12:04:04.005Z,53.92
2022-11-16T12:05:04.431Z,54.00
2022-11-16T12:06:04.613Z,52.05
2022-11-16T12:09:25.829Z,53.37
2022-11-16T12:10:26.150Z,54.15
2022-11-16T12:11:26.482Z,53.76
2022-11-16T12:12:26.800Z,54.25
2022-11-16T12:13:27.125Z,54.25
2022-11-16T12:14:27.462Z,55.18
2022-11-16T12:15:27.823Z,56.30
2022-11-16T12:16:28.122Z,56.25
2022-11-16T12:17:28.434Z,56.26
2022-11-16T12:18:28.739Z,50.11
2022-11-16T12:19:29.053Z,50.18
2022-11-16T12:20:29.460Z,56.54
2022-11-16T12:21:29.715Z,56.26
2022-11-16T12:22:30.045Z,50.01
2022-11-16T12:23:30.363Z,54.15
2022-11-16T12:24:31.554Z,54.71
2022-11-16T12:25:31.026Z,54.71
2022-11-16T12:26:31.313Z,50.33
2022-11-16T12:27:31.639Z,50.10
2022-11-16T12:28:31.952Z,50.01
2022-11-16T12:29:32.263Z,55.10
2022-11-16T12:30:32.605Z,50.05
2022-11-16T12:31:32.896Z,50.07
2022-11-16T12:32:33.225Z,50.20
2022-11-16T12:33:33.848Z,50.45
2022-11-16T12:34:33.806Z,55.24
2022-11-16T12:35:35.121Z,54.91
2022-11-16T12:36:34.462Z,53.12
2022-11-16T12:37:34.780Z,54.69
2022-11-16T12:38:35.113Z,54.69
2022-11-16T12:39:35.391Z,53.32
2022-11-16T12:40:35.746Z,53.91
2022-11-16T12:41:36.123Z,54.88
2022-11-16T12:42:36.287Z,55.47
2022-11-16T12:43:36.880Z,53.32
2022-11-16T12:44:36.923Z,53.22
2022-11-16T12:45:37.266Z,53.12
2022-11-16T12:46:37.564Z,53.12
2022-11-16T12:47:37.846Z,53.14
2022-11-16T12:48:38.189Z,53.27
2022-11-16T12:49:38.485Z,53.77
2022-11-16T12:50:38.787Z,55.14
2022-11-16T12:51:39.094Z,54.69
2022-11-16T12:52:39.412Z,54.79
2022-11-16T12:53:39.728Z,50.00
2022-11-16T12:54:57.700Z,54.88
2022-11-16T12:55:41.277Z,53.12
2022-11-16T12:56:43.399Z,54.69
2022-11-16T12:57:41.742Z,51.17
2022-11-16T12:58:41.097Z,53.32
2022-11-16T12:59:41.371Z,51.23
2022-11-16T13:00:41.957Z,53.91